الصفحة الرئيسية
METAR-TAF:

METAR-TAF

مطار :

Roi Et, تايلاند

دائرة عرض: 16-07-00N, خط طول: 103-46-26E, ارتفاع: 138 متر

مراقبة الطقس الحالي

تاريخ ووقت الإصدار 4ساعات و 33 دقيقة قبل الساعة 14:00UTC
رياح هادئة
درجة الحرارة 26°درجة مئوية
الرطوبة 94%
ضغط 1012 hPa
الرؤية 10 كم أو أكثر
غيوم قليلة على ارتفاع 3000 قدم

METAR: VTUV 051400Z 00000KT 9999 FEW030 26/25 Q1012 NOSIG

زمن: 01:33 (18:33 UTC)

توقعات

تاريخ ووقت الإصدار 1ساعة و 33 دقيقة قبل الساعة 17:00UTC
التوقعات صالحة من05 الساعة 18 UTC إلى 06 الساعة 18 UTC
ريح 5 عقدة من الشرق/الشمال الشرقي
الرؤية 10 كم أو أكثر
غيوم قليلة على ارتفاع 3000 قدم

TAF: VTUV 051700Z 0518/0618 07005KT 9999 FEW030

أرصاد الطقس والتوقعات من أكثر من 4000 مطار (تقارير الطقس للمطار METAR والتنبؤ بالطقس بالمطارTAF).

المحطات المتاحة هي النقط الصفراء والحمراء على الخريطة.

حرك المؤشر فوق النقطة لمعرفة اسم المحطة.

ثم انقر لمعرفة أرصاد وتوقعات الطقس.

لتغيير الخارطة: اضغط على الأزرار الخضراء مع رمز الصليب الأسود للتكبير. على الزر الأخضر مع شرطة للتصغير، أو على الأسهم الخضراء للخرائط المجاورة.


METAR-TAF: